Time;durP1;ratioP1;P1;durP2;ratioP2;P2;SDS_P1;SDS_P2;PMS_P1;PMS_P2;Temp;Humidity;BMP_temperature;BMP_pressure;BME280_temperature;BME280_humidity;BME280_pressure;Samples;Min_cycle;Max_cycle;Signal;HPM_P1;HPM_P2
2023/07/04 00:14:54;;;;;;;10.50;5.28;;;;;;;16.64;56.65;99844.09;30853667;28;98842;-72
2023/07/04 00:29:54;;;;;;;14.55;5.38;;;;;;;16.45;57.83;99846.72;30948007;28;101615;-73
2023/07/04 00:44:55;;;;;;;13.52;5.28;;;;;;;16.20;58.29;99852.06;30975028;28;96877;-75
2023/07/04 00:59:58;;;;;;;14.60;5.68;;;;;;;15.92;59.65;99849.72;30973509;28;97152;-74
2023/07/04 01:15:01;;;;;;;11.23;5.53;;;;;;;15.73;60.29;99845.00;30982445;28;96902;-75
2023/07/04 01:30:04;;;;;;;15.43;5.23;;;;;;;15.64;61.31;99859.69;30994089;28;96885;-75
2023/07/04 01:45:07;;;;;;;13.73;5.40;;;;;;;15.57;62.07;99854.34;30873650;28;96652;-73
2023/07/04 02:00:09;;;;;;;10.73;6.47;;;;;;;14.91;63.01;99849.09;30866069;28;98079;-77
2023/07/04 02:15:09;;;;;;;13.57;4.67;;;;;;;14.52;64.45;99852.34;30864884;28;97463;-71
2023/07/04 02:30:10;;;;;;;17.40;5.57;;;;;;;14.27;65.53;99848.59;30863285;28;96846;-63
2023/07/04 02:45:11;;;;;;;11.98;5.15;;;;;;;14.02;66.24;99854.50;30861611;28;96721;-68
2023/07/04 03:00:11;;;;;;;11.85;5.47;;;;;;;13.87;67.26;99850.13;30860422;28;96678;-65
2023/07/04 03:15:12;;;;;;;12.90;5.15;;;;;;;13.85;67.71;99840.66;30858454;28;96805;-65
2023/07/04 03:30:12;;;;;;;10.90;4.90;;;;;;;13.95;68.07;99848.31;30857650;28;97050;-71
2023/07/04 03:45:13;;;;;;;9.98;4.90;;;;;;;14.12;67.87;99846.06;30834251;28;96760;-69
2023/07/04 04:00:13;;;;;;;13.45;6.20;;;;;;;14.32;67.89;99857.66;30732719;28;96585;-80
2023/07/04 04:15:14;;;;;;;7.90;3.95;;;;;;;14.85;67.60;99856.94;30732801;28;96763;-67
2023/07/04 04:30:14;;;;;;;11.55;4.28;;;;;;;15.35;66.58;99871.72;30738235;28;97404;-66
2023/07/04 04:45:15;;;;;;;10.10;4.38;;;;;;;15.74;66.01;99865.44;30724402;28;97237;-75
2023/07/04 05:00:16;;;;;;;7.80;3.92;;;;;;;16.17;65.26;99876.66;30741245;28;96662;-74
2023/07/04 05:15:16;;;;;;;12.50;5.07;;;;;;;16.51;64.35;99891.56;30738502;28;97144;-75
2023/07/04 05:30:17;;;;;;;11.98;4.57;;;;;;;16.99;63.55;99897.44;30736223;28;97675;-65
2023/07/04 05:45:17;;;;;;;14.73;5.93;;;;;;;17.77;62.88;99906.84;30736068;28;97296;-70
2023/07/04 06:00:17;;;;;;;9.98;4.20;;;;;;;18.75;60.96;99901.41;30735138;28;100903;-68
2023/07/04 06:15:18;;;;;;;19.48;4.20;;;;;;;19.59;58.03;99906.66;30733581;28;96685;-70
2023/07/04 06:30:18;;;;;;;9.90;3.15;;;;;;;20.69;55.06;99910.47;30730009;28;98553;-68
2023/07/04 06:45:18;;;;;;;6.33;2.87;;;;;;;21.47;49.28;99913.31;30730147;28;103585;-66
2023/07/04 07:00:19;;;;;;;6.03;2.80;;;;;;;22.39;45.84;99912.88;30728934;28;97442;-65
2023/07/04 07:15:19;;;;;;;4.80;2.20;;;;;;;23.25;42.75;99912.03;30847018;28;97026;-65
2023/07/04 07:30:20;;;;;;;6.70;2.72;;;;;;;23.65;39.51;99913.34;30855299;28;103370;-66
2023/07/04 07:45:20;;;;;;;5.57;2.30;;;;;;;23.95;38.73;99920.03;30856449;28;97098;-66
2023/07/04 08:00:20;;;;;;;5.78;3.08;;;;;;;24.65;36.54;99900.63;30855737;28;96725;-68
2023/07/04 08:15:21;;;;;;;6.53;3.08;;;;;;;24.64;35.55;99906.34;30854784;28;97935;-75
2023/07/04 08:30:21;;;;;;;7.72;4.05;;;;;;;26.13;34.96;99900.63;30851701;28;97663;-66
2023/07/04 08:45:26;;;;;;;6.93;3.50;;;;;;;26.08;34.25;99899.84;30851676;28;97081;-67
2023/07/04 09:00:36;;;;;;;8.00;4.33;;;;;;;26.77;33.00;99908.19;30850382;28;97263;-67
2023/07/04 09:15:40;;;;;;;8.00;4.70;;;;;;;27.76;32.22;99915.16;30849651;28;96663;-66
2023/07/04 09:30:40;;;;;;;7.70;4.33;;;;;;;27.78;32.16;99903.94;30850669;28;97111;-69
2023/07/04 09:45:41;;;;;;;10.02;4.45;;;;;;;28.40;31.33;99919.56;30868907;28;97490;-66
2023/07/04 10:00:59;;;;;;;8.13;5.23;;;;;;;28.91;31.17;99923.44;30865798;28;96943;-67
2023/07/04 10:15:59;;;;;;;7.77;4.43;;;;;;;28.92;30.85;99912.19;30864346;28;97555;-66
2023/07/04 10:31:06;;;;;;;8.93;4.65;;;;;;;28.47;29.68;99904.38;30861602;28;118323;-69
2023/07/04 10:46:11;;;;;;;8.30;4.30;;;;;;;28.76;29.47;99902.59;30861299;28;96727;-80
2023/07/04 11:01:19;;;;;;;7.40;4.27;;;;;;;29.04;28.95;99907.03;30860620;28;96796;-66
2023/07/04 11:16:27;;;;;;;7.93;4.23;;;;;;;29.55;29.23;99918.22;30860340;28;97257;-68
2023/07/04 11:31:28;;;;;;;6.80;4.20;;;;;;;30.00;27.85;99909.38;30856032;28;96805;-68
2023/07/04 11:46:29;;;;;;;8.60;5.77;;;;;;;30.40;27.43;99904.09;30856738;28;96926;-78
2023/07/04 12:01:52;;;;;;;10.30;6.70;;;;;;;30.83;26.37;99894.56;30853436;28;97336;-70
2023/07/04 12:16:57;;;;;;;11.27;6.37;;;;;;;29.24;28.63;99883.13;30853318;28;97535;-73
2023/07/04 12:32:03;;;;;;;14.30;8.53;;;;;;;29.65;28.13;99876.84;30850887;28;97374;-65
2023/07/04 12:47:10;;;;;;;12.73;8.27;;;;;;;29.69;28.55;99860.59;30849704;28;97850;-66
2023/07/04 13:02:27;;;;;;;12.33;8.10;;;;;;;29.12;28.72;99867.13;30849929;28;96742;-71
2023/07/04 13:17:27;;;;;;;16.03;9.50;;;;;;;28.95;29.06;99865.00;30804160;28;96707;-73
2023/07/04 13:32:39;;;;;;;14.68;9.68;;;;;;;29.17;28.39;99860.72;30737943;28;97632;-70
2023/07/04 13:47:40;;;;;;;12.90;8.83;;;;;;;29.13;28.53;99859.72;30737086;28;97579;-70
2023/07/04 14:02:40;;;;;;;15.93;9.95;;;;;;;29.64;27.39;99849.72;30734358;28;99949;-65
2023/07/04 14:17:40;;;;;;;16.48;10.55;;;;;;;29.23;28.10;99854.06;30733075;28;96759;-66
2023/07/04 14:32:41;;;;;;;16.95;11.80;;;;;;;28.88;28.24;99839.88;30731969;28;98710;-66
2023/07/04 14:47:41;;;;;;;17.10;11.55;;;;;;;29.33;27.70;99847.56;30835599;28;111626;-65
2023/07/04 15:02:42;;;;;;;18.95;12.40;;;;;;;28.36;28.22;99842.63;30857298;28;112722;-65
2023/07/04 15:17:42;;;;;;;18.90;12.45;;;;;;;28.83;28.42;99834.50;30858947;28;97261;-69
2023/07/04 15:32:45;;;;;;;17.45;12.95;;;;;;;28.83;28.52;99829.81;30853956;28;119495;-71
2023/07/04 15:47:48;;;;;;;22.33;13.93;;;;;;;28.64;28.13;99816.19;30854871;28;97478;-75
2023/07/04 16:02:48;;;;;;;19.97;12.57;;;;;;;28.48;28.33;99817.53;30854802;28;97159;-64
2023/07/04 16:17:48;;;;;;;17.88;12.35;;;;;;;28.28;28.47;99816.75;30838148;28;97853;-65
2023/07/04 16:32:48;;;;;;;19.42;12.15;;;;;;;28.04;28.37;99825.03;30718180;28;100654;-74
2023/07/04 16:47:49;;;;;;;17.00;12.77;;;;;;;28.84;28.16;99814.19;30733633;28;101285;-66
2023/07/04 17:02:49;;;;;;;16.50;12.18;;;;;;;28.24;28.68;99817.63;30739491;28;111509;-66
2023/07/04 17:17:50;;;;;;;18.83;12.90;;;;;;;27.86;28.67;99826.63;30738305;28;97327;-66
2023/07/04 17:32:50;;;;;;;19.75;12.90;;;;;;;27.86;28.59;99832.13;30736548;28;97387;-67
2023/07/04 17:47:51;;;;;;;17.83;11.90;;;;;;;27.86;28.69;99843.06;30736434;28;96793;-66
2023/07/04 18:02:55;;;;;;;14.68;9.98;;;;;;;27.32;29.56;99851.31;30734238;28;99613;-67
2023/07/04 18:17:55;;;;;;;15.07;9.90;;;;;;;26.19;31.21;99876.88;30732916;28;98554;-68
2023/07/04 18:32:56;;;;;;;15.63;9.60;;;;;;;25.24;32.43;99892.97;30809173;28;97246;-66
2023/07/04 18:47:56;;;;;;;18.75;8.98;;;;;;;24.32;34.25;99902.72;30815014;28;98317;-66
2023/07/04 19:02:57;;;;;;;13.10;8.70;;;;;;;23.58;35.27;99931.78;30860354;28;101996;-66
2023/07/04 19:17:57;;;;;;;16.42;10.00;;;;;;;22.97;36.56;99943.00;30859956;28;96836;-65
2023/07/04 19:32:57;;;;;;;13.80;8.90;;;;;;;22.46;37.83;99970.50;30857744;28;107687;-68
2023/07/04 19:47:58;;;;;;;11.57;8.27;;;;;;;22.01;39.46;99979.66;30849552;28;112479;-73
2023/07/04 20:02:59;;;;;;;15.30;9.37;;;;;;;22.35;40.87;100004.84;30723439;28;96832;-68
2023/07/04 20:17:59;;;;;;;16.02;10.07;;;;;;;22.26;42.09;100004.41;30721274;28;97121;-69
2023/07/04 20:32:59;;;;;;;18.52;10.95;;;;;;;21.78;42.93;100004.06;30753590;28;112464;-73
2023/07/04 20:47:59;;;;;;;27.53;12.80;;;;;;;21.36;44.04;100001.75;30852001;28;96694;-73
2023/07/04 21:03:00;;;;;;;27.77;14.80;;;;;;;20.71;46.05;100008.47;30848577;28;110914;-70
2023/07/04 21:18:00;;;;;;;21.67;11.77;;;;;;;20.69;47.40;100029.56;30848942;28;100319;-70
2023/07/04 21:33:01;;;;;;;20.50;10.70;;;;;;;20.57;48.21;100030.41;30858468;28;97427;-70
2023/07/04 21:48:01;;;;;;;31.20;13.37;;;;;;;20.47;48.48;100038.31;30868154;28;96794;-68
2023/07/04 22:03:02;;;;;;;24.67;13.30;;;;;;;20.10;49.92;100052.13;30866560;28;96859;-69
2023/07/04 22:18:04;;;;;;;25.47;12.10;;;;;;;19.58;50.78;100052.81;30865775;28;116645;-71
2023/07/04 22:33:05;;;;;;;24.10;13.30;;;;;;;19.06;52.03;100066.88;30863484;28;97760;-74
2023/07/04 22:48:05;;;;;;;19.85;11.85;;;;;;;18.50;53.92;100066.94;30862109;28;102110;-71
2023/07/04 23:03:06;;;;;;;21.17;12.45;;;;;;;18.15;55.21;100067.56;30860864;28;97385;-72
2023/07/04 23:18:06;;;;;;;24.17;12.77;;;;;;;17.85;56.06;100067.38;30859079;28;96708;-72
2023/07/04 23:33:06;;;;;;;20.05;11.45;;;;;;;17.65;56.44;100072.97;30856607;28;96860;-70
2023/07/04 23:48:07;;;;;;;19.85;12.75;;;;;;;17.44;57.29;100069.56;30856917;28;96713;-72
